Time;durP1;ratioP1;P1;durP2;ratioP2;P2;SDS_P1;SDS_P2;PMS_P1;PMS_P2;Temp;Humidity;BMP_temperature;BMP_pressure;BME280_temperature;BME280_humidity;BME280_pressure;Samples;Min_cycle;Max_cycle;Signal;HPM_P1;HPM_P2
2023/07/12 00:00:31;;;;;;;13.38;8.93;;;17.90;99.90;;;;;;6155246;23;20029;-86
2023/07/12 00:03:21;;;;;;;15.95;9.45;;;17.90;99.90;;;;;;6155785;23;20025;-86
2023/07/12 00:06:18;;;;;;;17.50;9.18;;;18.00;99.90;;;;;;6155222;23;20022;-86
2023/07/12 00:09:10;;;;;;;14.02;9.32;;;18.00;99.90;;;;;;6154004;23;20029;-84
2023/07/12 00:12:00;;;;;;;;;;;18.00;99.90;;;;;;6156586;23;20037;-85
2023/07/12 00:14:47;;;;;;;16.15;8.98;;;18.10;99.90;;;;;;6156313;23;19948;-85
2023/07/12 00:17:34;;;;;;;11.98;8.20;;;18.00;99.90;;;;;;6156543;23;20414;-86
2023/07/12 00:20:24;;;;;;;13.07;7.85;;;18.00;99.90;;;;;;6161917;23;20040;-85
2023/07/12 00:23:15;;;;;;;14.27;8.45;;;17.90;99.90;;;;;;6155142;23;20037;-86
2023/07/12 00:26:18;;;;;;;12.13;7.78;;;17.90;99.90;;;;;;6154884;23;20021;-84
2023/07/12 00:29:09;;;;;;;11.27;7.38;;;17.90;99.90;;;;;;6155996;23;20024;-86
2023/07/12 00:31:56;;;;;;;12.70;7.22;;;17.90;99.90;;;;;;6156161;23;20496;-85
2023/07/12 00:34:43;;;;;;;12.70;7.13;;;17.90;99.90;;;;;;6156504;23;20021;-85
2023/07/12 00:37:31;;;;;;;11.70;7.60;;;17.90;99.90;;;;;;6154987;23;20029;-86
2023/07/12 00:40:43;;;;;;;12.00;6.63;;;17.90;99.90;;;;;;6155643;23;20092;-86
2023/07/12 00:43:37;;;;;;;10.23;7.15;;;17.80;99.90;;;;;;6155428;23;20040;-86
2023/07/12 00:46:58;;;;;;;9.77;6.35;;;17.80;99.90;;;;;;6156988;23;20021;-86
2023/07/12 00:49:48;;;;;;;10.77;5.50;;;17.80;99.90;;;;;;6154436;23;20032;-86
2023/07/12 00:52:36;;;;;;;10.13;5.78;;;17.80;99.90;;;;;;6154588;23;20026;-86
2023/07/12 00:56:04;;;;;;;9.18;5.95;;;17.80;99.90;;;;;;6155951;23;20025;-85
2023/07/12 00:59:06;;;;;;;8.77;5.95;;;17.90;99.90;;;;;;6037331;23;20031;-85
2023/07/12 01:01:59;;;;;;;8.43;6.22;;;17.90;99.90;;;;;;6155337;23;20064;-84
2023/07/12 01:04:49;;;;;;;10.68;5.80;;;17.90;99.90;;;;;;6155075;23;20025;-85
2023/07/12 01:07:36;;;;;;;10.95;5.22;;;17.90;99.90;;;;;;6155704;23;20029;-85
2023/07/12 01:10:23;;;;;;;10.23;5.70;;;17.90;99.90;;;;;;6155323;23;20026;-86
2023/07/12 01:13:11;;;;;;;10.32;5.68;;;17.90;99.90;;;;;;6155736;23;20040;-86
2023/07/12 01:16:00;;;;;;;16.60;5.95;;;17.90;99.90;;;;;;6154122;23;20026;-84
2023/07/12 01:18:50;;;;;;;7.07;5.32;;;18.00;99.90;;;;;;6155386;23;20095;-86
2023/07/12 01:21:45;;;;;;;7.68;5.50;;;18.00;99.90;;;;;;6154578;23;20029;-85
2023/07/12 01:24:32;;;;;;;9.02;5.70;;;17.90;99.90;;;;;;6135629;23;20386;-86
2023/07/12 01:27:24;;;;;;;13.93;6.18;;;18.00;99.90;;;;;;6156440;23;20133;-85
2023/07/12 01:30:17;;;;;;;8.68;5.47;;;18.00;99.90;;;;;;6135073;23;20417;-86
2023/07/12 01:33:04;;;;;;;11.32;6.15;;;17.90;99.90;;;;;;6155814;23;20037;-85
2023/07/12 01:35:51;;;;;;;9.50;6.07;;;18.00;99.90;;;;;;6154736;23;20040;-84
2023/07/12 01:38:40;;;;;;;8.02;5.93;;;18.00;99.90;;;;;;6155608;23;20030;-86
2023/07/12 01:41:30;;;;;;;10.35;6.28;;;17.90;99.90;;;;;;6155287;23;20036;-84
2023/07/12 01:44:17;;;;;;;14.25;6.53;;;18.00;99.90;;;;;;6156245;23;20032;-85
2023/07/12 01:47:04;;;;;;;8.38;5.72;;;17.90;99.90;;;;;;6156401;23;20109;-85
2023/07/12 01:49:54;;;;;;;10.73;6.53;;;17.90;99.90;;;;;;6156469;23;20302;-85
2023/07/12 01:52:44;;;;;;;12.25;7.10;;;17.90;99.90;;;;;;6156482;23;20070;-86
2023/07/12 01:55:31;;;;;;;11.57;7.97;;;17.80;99.90;;;;;;6155233;23;20033;-85
2023/07/12 01:58:18;;;;;;;10.10;6.93;;;17.80;99.90;;;;;;6155703;23;20048;-86
2023/07/12 02:01:05;;;;;;;14.07;6.85;;;17.80;99.90;;;;;;6155611;23;20034;-86
2023/07/12 02:03:53;;;;;;;10.50;5.85;;;17.80;99.90;;;;;;6157925;23;20092;-85
2023/07/12 02:06:40;;;;;;;9.05;5.43;;;17.80;99.90;;;;;;6155957;23;20045;-86
2023/07/12 02:09:34;;;;;;;7.75;5.20;;;17.80;99.90;;;;;;6158090;23;20104;-84
2023/07/12 02:12:22;;;;;;;17.88;4.72;;;17.80;99.90;;;;;;6156755;23;20025;-83
2023/07/12 02:15:11;;;;;;;7.90;4.45;;;17.80;99.90;;;;;;6157629;23;20164;-86
2023/07/12 02:18:01;;;;;;;8.27;3.95;;;17.90;99.90;;;;;;6157361;23;20059;-85
2023/07/12 02:20:48;;;;;;;11.18;4.20;;;17.90;99.90;;;;;;6157127;23;20453;-85
2023/07/12 02:23:35;;;;;;;7.40;4.05;;;17.90;99.90;;;;;;6157216;23;20030;-84
2023/07/12 02:26:23;;;;;;;8.00;4.28;;;17.90;99.90;;;;;;6158027;23;20032;-83
2023/07/12 02:29:13;;;;;;;7.47;4.57;;;18.00;99.90;;;;;;6156045;23;20034;-86
2023/07/12 02:32:00;;;;;;;10.38;4.47;;;18.00;99.90;;;;;;6156851;23;20029;-87
2023/07/12 02:34:48;;;;;;;9.57;4.38;;;18.00;99.90;;;;;;6157743;23;20126;-84
2023/07/12 02:37:39;;;;;;;10.48;4.47;;;18.00;99.90;;;;;;6158557;23;20040;-85
2023/07/12 02:40:28;;;;;;;5.80;4.53;;;17.90;99.90;;;;;;6140893;23;20660;-85
2023/07/12 02:43:16;;;;;;;14.65;5.30;;;17.90;99.90;;;;;;6155439;23;20068;-85
2023/07/12 02:46:03;;;;;;;10.48;4.80;;;17.90;99.90;;;;;;6157265;23;20021;-85
2023/07/12 02:48:50;;;;;;;11.93;3.95;;;17.90;99.90;;;;;;6156592;23;20045;-86
2023/07/12 02:51:38;;;;;;;11.98;4.75;;;17.90;99.90;;;;;;6156982;23;20025;-86
2023/07/12 02:54:25;;;;;;;7.03;4.30;;;17.90;99.90;;;;;;6155899;23;20037;-85
2023/07/12 02:57:14;;;;;;;9.50;4.82;;;17.90;99.90;;;;;;6157433;23;20041;-87
2023/07/12 03:00:03;;;;;;;7.50;4.40;;;17.90;99.90;;;;;;6157330;23;20034;-85
2023/07/12 03:02:50;;;;;;;10.93;5.15;;;17.90;99.90;;;;;;6156252;23;20382;-85
2023/07/12 03:05:39;;;;;;;10.88;4.75;;;17.90;99.90;;;;;;6156336;23;20025;-87
2023/07/12 03:08:26;;;;;;;13.25;5.07;;;17.90;99.90;;;;;;6156795;23;20086;-84
2023/07/12 03:11:14;;;;;;;13.63;5.07;;;17.80;99.90;;;;;;6157329;23;20022;-85
2023/07/12 03:14:04;;;;;;;9.52;5.25;;;17.90;99.90;;;;;;6156678;23;20025;-87
2023/07/12 03:16:52;;;;;;;9.23;5.28;;;17.90;99.90;;;;;;6155286;23;20045;-85
2023/07/12 03:19:39;;;;;;;11.98;5.07;;;17.90;99.90;;;;;;6158040;23;20112;-83
2023/07/12 03:22:29;;;;;;;11.82;5.32;;;17.90;99.90;;;;;;6157365;23;20025;-85
2023/07/12 03:25:16;;;;;;;9.20;4.72;;;17.90;99.90;;;;;;6156803;23;20022;-87
2023/07/12 03:28:03;;;;;;;8.43;4.45;;;17.90;99.90;;;;;;6154786;23;20022;-86
2023/07/12 03:31:02;;;;;;;15.80;5.25;;;17.90;99.90;;;;;;6157436;23;20033;-84
2023/07/12 03:33:49;;;;;;;8.80;5.10;;;17.90;99.90;;;;;;6156499;23;20022;-90
2023/07/12 03:36:38;;;;;;;10.10;4.38;;;17.90;99.90;;;;;;6157101;23;20084;-85
2023/07/12 03:39:25;;;;;;;10.45;5.38;;;17.90;99.90;;;;;;6156262;23;20393;-85
2023/07/12 03:42:13;;;;;;;9.77;4.72;;;17.90;99.90;;;;;;6156686;23;20078;-84
2023/07/12 03:45:00;;;;;;;10.88;4.95;;;17.90;99.90;;;;;;6157546;23;20030;-88
2023/07/12 03:47:48;;;;;;;8.32;4.60;;;17.90;99.90;;;;;;6156362;23;20021;-87
2023/07/12 03:50:41;;;;;;;11.18;4.70;;;17.90;99.90;;;;;;6157056;23;20079;-84
2023/07/12 03:53:32;;;;;;;11.63;5.43;;;17.90;99.90;;;;;;6157654;23;20021;-86
2023/07/12 03:56:19;;;;;;;9.30;4.75;;;17.90;99.90;;;;;;6155304;23;20033;-89
2023/07/12 03:59:09;;;;;;;10.88;5.03;;;17.90;99.90;;;;;;6157192;23;20041;-86
2023/07/12 04:02:28;;;;;;;;;;;;;;;;;;;;;
2023/07/12 04:05:42;;;;;;;13.52;4.80;;;18.00;99.90;;;;;;6010328;23;20028;-85
2023/07/12 04:08:29;;;;;;;13.52;5.30;;;18.00;99.90;;;;;;6011052;23;20135;-86
2023/07/12 04:11:29;;;;;;;9.25;4.82;;;18.10;99.90;;;;;;6011574;23;20039;-85
2023/07/12 04:14:23;;;;;;;13.48;4.82;;;18.00;99.90;;;;;;6012224;23;20020;-88
2023/07/12 04:17:11;;;;;;;9.80;4.05;;;18.10;99.90;;;;;;6010587;23;20032;-85
2023/07/12 04:20:05;;;;;;;11.05;4.75;;;18.20;99.90;;;;;;6013023;23;20324;-85
2023/07/12 04:22:54;;;;;;;7.55;4.18;;;18.30;99.90;;;;;;6017475;23;20031;-87
2023/07/12 04:25:44;;;;;;;18.65;5.03;;;18.40;99.90;;;;;;6012786;23;20024;-87
2023/07/12 04:28:35;;;;;;;10.07;4.25;;;18.40;99.90;;;;;;6012708;23;20023;-85
2023/07/12 04:31:22;;;;;;;9.13;4.70;;;18.50;99.90;;;;;;6017213;23;20031;-86
2023/07/12 04:34:12;;;;;;;12.55;5.25;;;18.50;99.90;;;;;;6012652;23;20099;-87
2023/07/12 04:37:08;;;;;;;12.48;4.38;;;18.60;99.90;;;;;;6030423;23;20085;-86
2023/07/12 04:39:56;;;;;;;12.02;5.13;;;18.60;99.90;;;;;;6022428;23;20074;-87
2023/07/12 04:42:45;;;;;;;14.38;5.03;;;18.60;99.90;;;;;;6114641;23;20033;-88
2023/07/12 04:45:32;;;;;;;8.63;4.80;;;18.60;99.90;;;;;;6156059;23;20085;-86
2023/07/12 04:48:20;;;;;;;10.18;4.82;;;18.60;99.90;;;;;;6157420;23;20497;-89
2023/07/12 04:51:07;;;;;;;11.18;4.43;;;18.70;99.90;;;;;;6158013;23;20449;-86
2023/07/12 04:53:55;;;;;;;14.05;4.63;;;18.60;99.90;;;;;;6157185;23;20032;-91
2023/07/12 04:56:42;;;;;;;12.20;4.72;;;18.60;99.90;;;;;;6156308;23;20025;-85
2023/07/12 04:59:33;;;;;;;13.45;4.95;;;18.70;99.90;;;;;;6157223;23;20033;-85
2023/07/12 05:02:22;;;;;;;9.70;4.28;;;18.70;99.90;;;;;;6156543;23;20034;-88
2023/07/12 05:05:11;;;;;;;12.43;4.80;;;18.70;99.90;;;;;;6155455;23;20628;-86
2023/07/12 05:07:59;;;;;;;10.55;4.40;;;18.80;99.90;;;;;;6155421;23;20037;-86
2023/07/12 05:10:50;;;;;;;9.45;4.55;;;18.90;99.90;;;;;;6157677;23;20037;-87
2023/07/12 05:13:40;;;;;;;9.50;4.72;;;18.90;58.20;;;;;;6135409;23;20029;-86
2023/07/12 05:16:30;;;;;;;11.93;4.55;;;18.90;30.60;;;;;;6156630;23;20041;-88
2023/07/12 05:19:17;;;;;;;11.02;4.95;;;19.00;99.90;;;;;;6156715;23;20076;-87
2023/07/12 05:22:05;;;;;;;9.57;4.80;;;19.00;96.70;;;;;;6157017;23;20040;-85
2023/07/12 05:24:52;;;;;;;11.77;5.60;;;19.00;32.50;;;;;;6154754;23;20029;-86
2023/07/12 05:27:40;;;;;;;9.20;4.95;;;19.10;95.30;;;;;;6157151;23;20037;-87
2023/07/12 05:30:27;;;;;;;14.77;5.55;;;19.10;52.10;;;;;;6154391;23;20048;-87
2023/07/12 05:33:17;;;;;;;11.93;5.35;;;19.20;3.20;;;;;;6157606;23;20029;-92
2023/07/12 05:36:06;;;;;;;9.52;5.05;;;19.20;1.00;;;;;;6158063;23;20033;-90
2023/07/12 05:38:54;;;;;;;13.55;5.13;;;19.20;1.00;;;;;;6156875;23;20049;-92
2023/07/12 05:41:42;;;;;;;11.77;5.60;;;19.30;1.00;;;;;;6163191;23;20037;-92
2023/07/12 05:44:29;;;;;;;9.77;5.07;;;19.40;1.00;;;;;;6162535;23;20029;-92
2023/07/12 05:47:17;;;;;;;12.73;5.97;;;19.40;1.00;;;;;;6162995;23;20025;-92
2023/07/12 05:50:06;;;;;;;13.60;6.05;;;19.40;99.90;;;;;;6163527;23;20025;-92
2023/07/12 05:52:53;;;;;;;13.43;5.25;;;19.40;99.90;;;;;;6163012;23;20036;-92
2023/07/12 05:55:40;;;;;;;15.75;5.88;;;19.40;1.00;;;;;;6161962;23;20029;-92
2023/07/12 05:58:31;;;;;;;14.32;6.13;;;19.40;39.20;;;;;;6160131;23;20040;-94
2023/07/12 06:01:20;;;;;;;12.40;5.43;;;19.50;99.90;;;;;;6163277;23;20052;-93
2023/07/12 06:04:10;;;;;;;12.80;5.90;;;19.60;99.90;;;;;;6163292;23;20080;-93
2023/07/12 06:07:00;;;;;;;22.73;10.02;;;19.70;99.90;;;;;;6165256;23;20467;-94
2023/07/12 06:09:47;;;;;;;11.80;5.93;;;19.80;1.00;;;;;;6167088;23;20078;-93
2023/07/12 06:12:38;;;;;;;13.30;5.65;;;19.80;92.30;;;;;;6161439;23;20026;-93
2023/07/12 06:15:25;;;;;;;13.40;6.50;;;19.80;99.90;;;;;;6164461;23;20025;-93
2023/07/12 06:18:12;;;;;;;14.10;6.97;;;19.80;99.90;;;;;;6161997;23;20026;-93
2023/07/12 06:21:03;;;;;;;16.42;5.80;;;19.90;99.90;;;;;;6161369;23;20108;-93
2023/07/12 06:23:50;;;;;;;14.07;5.97;;;20.10;17.90;;;;;;6160244;23;20310;-94
2023/07/12 06:26:38;;;;;;;13.65;6.63;;;20.20;1.00;;;;;;6161611;23;20130;-94
2023/07/12 06:29:26;;;;;;;13.45;6.80;;;20.30;99.90;;;;;;6164049;23;20160;-92
2023/07/12 06:32:14;;;;;;;9.52;6.15;;;20.40;99.90;;;;;;6165619;23;20128;-92
2023/07/12 06:35:05;;;;;;;18.13;6.93;;;20.60;1.00;;;;;;6161361;23;20021;-91
2023/07/12 06:37:54;;;;;;;13.20;7.20;;;20.80;99.90;;;;;;6163513;23;20025;-90
2023/07/12 06:40:45;;;;;;;16.00;5.93;;;20.90;99.90;;;;;;6163139;23;20033;-91
2023/07/12 06:43:35;;;;;;;11.23;6.50;;;20.90;1.00;;;;;;6163686;23;20018;-90
2023/07/12 06:46:23;;;;;;;13.55;6.25;;;21.00;99.90;;;;;;6168868;23;20025;-93
2023/07/12 06:49:13;;;;;;;10.38;5.70;;;21.10;1.00;;;;;;6168595;23;20025;-93
2023/07/12 06:52:03;;;;;;;12.88;6.20;;;21.30;99.90;;;;;;6163592;23;20026;-91
2023/07/12 06:54:53;;;;;;;11.93;6.25;;;21.60;99.90;;;;;;6170538;23;20033;-90
2023/07/12 06:57:40;;;;;;;13.75;6.10;;;21.60;1.00;;;;;;6172097;23;20052;-94
2023/07/12 07:00:28;;;;;;;15.35;5.57;;;21.80;99.90;;;;;;6165068;23;20029;-90
2023/07/12 07:03:16;;;;;;;11.90;5.90;;;21.90;1.00;;;;;;6166154;23;20076;-92
2023/07/12 07:06:04;;;;;;;11.15;5.97;;;21.80;99.90;;;;;;6165690;23;20420;-91
2023/07/12 07:08:52;;;;;;;10.13;5.80;;;21.60;42.90;;;;;;6159232;23;20340;-92
2023/07/12 07:11:39;;;;;;;14.68;5.88;;;21.60;62.90;;;;;;6160686;23;20109;-89
2023/07/12 07:14:27;;;;;;;16.52;6.47;;;21.60;38.90;;;;;;6162259;23;20081;-91
2023/07/12 07:17:15;;;;;;;14.13;7.05;;;21.70;47.50;;;;;;6163743;23;20033;-91
2023/07/12 07:20:04;;;;;;;12.73;6.13;;;21.70;90.60;;;;;;6164941;23;20328;-92
2023/07/12 07:22:54;;;;;;;16.30;6.47;;;21.70;38.10;;;;;;6162372;23;20029;-88
2023/07/12 07:25:41;;;;;;;17.95;6.38;;;22.00;99.90;;;;;;6163975;23;20037;-93
2023/07/12 07:28:30;;;;;;;15.13;6.75;;;21.90;99.90;;;;;;6163557;23;20029;-93
2023/07/12 07:31:17;;;;;;;14.60;7.00;;;21.90;78.10;;;;;;6164932;23;20025;-92
2023/07/12 07:34:05;;;;;;;9.65;6.72;;;21.90;99.90;;;;;;6162324;23;20093;-92
2023/07/12 07:36:55;;;;;;;12.27;6.82;;;21.90;99.90;;;;;;6161623;23;20128;-91
2023/07/12 07:39:42;;;;;;;16.13;6.32;;;22.20;99.90;;;;;;6163410;23;20100;-92
2023/07/12 07:42:30;;;;;;;12.57;6.78;;;22.50;20.40;;;;;;6162146;23;20037;-91
2023/07/12 07:45:18;;;;;;;12.05;6.45;;;22.70;1.00;;;;;;6165672;23;20085;-94
2023/07/12 07:48:05;;;;;;;16.35;6.25;;;22.80;99.90;;;;;;6161646;23;20425;-92
2023/07/12 07:50:55;;;;;;;9.85;5.75;;;23.10;99.90;;;;;;6160253;23;20025;-93
2023/07/12 07:53:44;;;;;;;11.38;6.10;;;23.40;99.90;;;;;;6162532;23;20026;-88
2023/07/12 07:56:32;;;;;;;10.27;5.55;;;23.40;1.00;;;;;;6162608;23;20100;-90
2023/07/12 07:59:21;;;;;;;12.38;5.50;;;23.60;1.00;;;;;;6163359;23;20040;-91
2023/07/12 08:02:11;;;;;;;6.97;5.28;;;23.80;99.90;;;;;;6161935;23;20282;-92
2023/07/12 08:05:00;;;;;;;8.52;4.65;;;23.80;99.90;;;;;;6160022;23;20038;-90
2023/07/12 08:07:48;;;;;;;8.65;4.85;;;23.90;99.90;;;;;;6162559;23;20029;-90
2023/07/12 08:10:35;;;;;;;10.45;4.72;;;24.10;1.00;;;;;;6163048;23;20283;-91
2023/07/12 08:13:25;;;;;;;8.82;4.68;;;24.20;1.00;;;;;;6160641;23;20076;-92
2023/07/12 08:16:14;;;;;;;8.95;4.20;;;24.60;1.00;;;;;;6163122;23;20029;-92
2023/07/12 08:19:02;;;;;;;7.55;4.30;;;24.40;1.00;;;;;;6164594;23;20405;-92
2023/07/12 08:22:03;;;;;;;14.32;4.28;;;24.30;1.00;;;;;;6162334;23;20029;-88
2023/07/12 08:24:51;;;;;;;8.60;3.92;;;24.70;99.90;;;;;;6159220;23;20029;-94
2023/07/12 08:27:42;;;;;;;7.75;3.78;;;24.60;99.90;;;;;;6140094;23;20025;-93
2023/07/12 08:30:29;;;;;;;10.23;3.53;;;24.90;99.90;;;;;;6158204;23;20041;-91
2023/07/12 08:33:21;;;;;;;5.50;2.92;;;25.10;99.90;;;;;;6158182;23;20021;-89
2023/07/12 08:36:08;;;;;;;5.75;3.10;;;25.90;99.90;;;;;;6159831;23;20309;-92
2023/07/12 08:38:58;;;;;;;5.32;3.13;;;26.00;99.90;;;;;;6166853;23;20032;-90
2023/07/12 08:41:46;;;;;;;8.98;3.25;;;26.20;99.90;;;;;;6165349;23;20026;-92
2023/07/12 08:44:35;;;;;;;5.18;2.80;;;25.90;99.90;;;;;;6165556;23;20037;-91
2023/07/12 08:47:31;;;;;;;7.38;3.05;;;25.90;99.90;;;;;;6163108;23;20031;-88
2023/07/12 08:50:19;;;;;;;5.63;2.85;;;26.00;99.90;;;;;;6158430;23;20080;-90
2023/07/12 08:53:20;;;;;;;5.10;2.85;;;26.40;99.90;;;;;;6158992;23;20105;-93
2023/07/12 08:56:13;;;;;;;8.45;3.05;;;26.50;99.90;;;;;;6157919;23;20341;-91
2023/07/12 08:59:01;;;;;;;;;;;26.60;99.90;;;;;;6160253;23;20033;-93
2023/07/12 09:01:53;;;;;;;4.90;2.38;;;26.20;99.90;;;;;;6159499;23;19917;-88
2023/07/12 09:04:40;;;;;;;5.63;2.35;;;26.70;79.90;;;;;;6162241;23;20040;-92
2023/07/12 09:07:31;;;;;;;5.55;2.35;;;26.70;64.30;;;;;;6157498;23;20053;-90
2023/07/12 09:10:29;;;;;;;6.25;2.55;;;26.80;54.50;;;;;;6159893;23;20029;-91
2023/07/12 09:13:17;;;;;;;4.68;2.95;;;25.70;64.00;;;;;;6157303;23;20373;-93
2023/07/12 09:16:27;;;;;;;6.22;3.20;;;25.70;88.00;;;;;;6158649;23;20025;-94
2023/07/12 09:19:24;;;;;;;7.20;2.80;;;25.90;75.70;;;;;;6157675;23;20053;-90
2023/07/12 09:22:17;;;;;;;5.28;2.42;;;26.70;66.80;;;;;;6165046;23;20311;-88
2023/07/12 09:25:19;;;;;;;10.18;2.50;;;27.50;31.10;;;;;;6164735;23;20437;-89
2023/07/12 09:28:12;;;;;;;4.45;2.58;;;27.80;21.00;;;;;;6162921;23;20026;-91
2023/07/12 09:31:10;;;;;;;7.00;2.78;;;27.60;14.40;;;;;;6161039;23;20101;-91
2023/07/12 09:34:06;;;;;;;3.70;2.03;;;27.50;9.70;;;;;;6158464;23;20022;-92
2023/07/12 09:36:56;;;;;;;7.50;2.22;;;28.00;1.00;;;;;;6157022;23;20456;-93
2023/07/12 09:39:59;;;;;;;6.00;2.40;;;28.10;1.00;;;;;;6160181;23;20029;-92
2023/07/12 09:42:50;;;;;;;7.22;2.63;;;28.30;1.00;;;;;;6156378;23;20025;-91
2023/07/12 09:45:38;;;;;;;6.35;2.40;;;28.90;1.00;;;;;;6158580;23;20104;-93
2023/07/12 09:48:52;;;;;;;2.95;2.28;;;29.00;1.00;;;;;;6159022;23;20021;-91
2023/07/12 09:52:02;;;;;;;8.23;2.10;;;28.90;1.00;;;;;;6158238;23;20025;-93
2023/07/12 09:55:03;;;;;;;3.88;2.42;;;28.90;1.00;;;;;;6158477;23;20025;-92
2023/07/12 09:58:02;;;;;;;5.63;2.30;;;28.80;1.00;;;;;;6158501;23;20025;-91
2023/07/12 10:01:02;;;;;;;6.93;2.58;;;28.60;1.00;;;;;;6158014;23;20108;-90
2023/07/12 10:03:56;;;;;;;5.13;2.00;;;28.60;1.00;;;;;;6158471;23;20029;-89
2023/07/12 10:06:49;;;;;;;7.07;2.30;;;28.30;1.00;;;;;;6157458;23;20460;-90
2023/07/12 10:09:39;;;;;;;5.88;2.70;;;27.70;1.00;;;;;;6157540;23;20025;-91
2023/07/12 10:12:38;;;;;;;4.28;2.40;;;27.50;1.00;;;;;;6157990;23;20036;-92
2023/07/12 10:15:33;;;;;;;5.32;2.50;;;27.60;1.00;;;;;;6158862;23;20029;-91
2023/07/12 10:18:27;;;;;;;5.80;2.65;;;27.70;1.00;;;;;;6157927;23;20040;-90
2023/07/12 10:21:25;;;;;;;4.55;2.38;;;28.80;1.00;;;;;;6158764;23;20420;-92
2023/07/12 10:24:18;;;;;;;4.32;2.85;;;29.50;1.00;;;;;;6158094;23;20026;-88
2023/07/12 10:27:37;;;;;;;5.40;2.22;;;30.10;1.00;;;;;;6158874;23;20036;-90
2023/07/12 10:30:26;;;;;;;3.88;2.63;;;29.90;1.00;;;;;;6159406;23;20425;-91
2023/07/12 10:33:38;;;;;;;4.90;2.53;;;29.50;1.00;;;;;;6159959;23;20025;-88
2023/07/12 10:36:26;;;;;;;6.32;2.33;;;30.30;1.00;;;;;;6159123;23;20029;-92
2023/07/12 10:39:13;;;;;;;5.07;2.40;;;30.90;1.00;;;;;;6158355;23;20352;-88
2023/07/12 10:42:16;;;;;;;4.70;2.50;;;30.70;1.00;;;;;;6159102;23;20040;-90
2023/07/12 10:45:06;;;;;;;8.40;3.22;;;31.40;1.00;;;;;;6167065;23;20025;-93
2023/07/12 10:47:55;;;;;;;6.63;3.13;;;30.90;1.00;;;;;;6159144;23;20025;-93
2023/07/12 10:50:48;;;;;;;7.75;3.10;;;30.60;1.00;;;;;;6160530;23;20021;-91
2023/07/12 10:53:48;;;;;;;9.48;3.85;;;30.00;1.00;;;;;;6160246;23;20302;-93
2023/07/12 10:56:53;;;;;;;13.32;3.63;;;30.90;1.00;;;;;;6170753;23;20025;-90
2023/07/12 10:59:45;;;;;;;8.43;3.60;;;30.20;1.00;;;;;;6164656;23;20029;-90
2023/07/12 11:02:44;;;;;;;8.55;3.72;;;30.40;1.00;;;;;;6169947;23;20029;-91
2023/07/12 11:05:59;;;;;;;5.18;3.63;;;29.50;1.00;;;;;;6173902;23;20036;-88
2023/07/12 11:09:09;;;;;;;7.20;3.90;;;29.10;1.00;;;;;;6167847;23;20539;-91
2023/07/12 11:11:56;;;;;;;4.85;3.08;;;29.10;1.00;;;;;;6166575;23;20092;-95
2023/07/12 11:14:50;;;;;;;10.70;3.70;;;29.90;1.00;;;;;;6165392;23;20029;-92
2023/07/12 11:18:09;;;;;;;5.97;3.25;;;30.40;1.00;;;;;;6158614;23;20370;-90
2023/07/12 11:21:06;;;;;;;6.18;3.50;;;31.70;1.00;;;;;;6111853;23;20099;-91
2023/07/12 11:23:55;;;;;;;7.13;3.35;;;32.40;1.00;;;;;;6138638;23;20028;-90
2023/07/12 11:26:58;;;;;;;8.50;3.63;;;32.80;1.00;;;;;;6161038;23;20309;-93
2023/07/12 11:29:47;;;;;;;6.43;3.50;;;32.80;1.00;;;;;;6159782;23;20037;-91
2023/07/12 11:32:39;;;;;;;8.90;3.92;;;32.80;1.00;;;;;;6136569;23;20049;-91
2023/07/12 11:35:47;;;;;;;6.57;3.70;;;32.30;1.00;;;;;;6159171;23;20032;-89
2023/07/12 11:38:37;;;;;;;4.85;3.40;;;32.60;1.00;;;;;;6160892;23;20029;-92
2023/07/12 11:41:26;;;;;;;6.90;3.13;;;33.40;1.00;;;;;;6138287;23;20039;-92
2023/07/12 11:44:15;;;;;;;6.95;3.65;;;34.10;1.00;;;;;;6159489;23;20033;-92
2023/07/12 11:47:02;;;;;;;7.00;3.25;;;34.50;1.00;;;;;;6162463;23;20033;-92
2023/07/12 11:49:58;;;;;;;6.72;3.72;;;33.50;1.00;;;;;;6164458;23;20314;-89
2023/07/12 11:52:46;;;;;;;8.25;3.60;;;33.40;1.00;;;;;;6170127;23;20026;-89
2023/07/12 11:55:35;;;;;;;7.70;3.75;;;32.10;1.00;;;;;;6161067;23;20077;-93
2023/07/12 11:58:27;;;;;;;6.07;3.58;;;31.80;1.00;;;;;;6161675;23;20029;-92
2023/07/12 12:01:15;;;;;;;;;;;32.10;1.00;;;;;;6158043;23;20103;-91
2023/07/12 12:04:05;;;;;;;6.55;3.53;;;32.00;1.00;;;;;;6162603;23;19924;-91
2023/07/12 12:06:59;;;;;;;15.20;4.07;;;31.70;1.00;;;;;;6160046;23;20037;-93
2023/07/12 12:09:50;;;;;;;5.13;3.42;;;31.80;1.00;;;;;;6160941;23;20078;-89
2023/07/12 12:12:40;;;;;;;5.80;3.65;;;32.80;1.00;;;;;;6138387;23;20030;-90
2023/07/12 12:15:32;;;;;;;5.03;3.25;;;33.20;1.00;;;;;;6158109;23;20134;-89
2023/07/12 12:18:22;;;;;;;5.78;3.60;;;34.20;1.00;;;;;;6159032;23;20029;-90
2023/07/12 12:21:18;;;;;;;8.68;2.97;;;34.60;1.00;;;;;;6160013;23;20029;-92
2023/07/12 12:24:18;;;;;;;4.85;3.17;;;33.50;1.00;;;;;;6160276;23;20298;-92
2023/07/12 12:27:18;;;;;;;6.72;3.35;;;33.00;1.00;;;;;;6158541;23;20021;-93
2023/07/12 12:30:16;;;;;;;4.50;3.07;;;33.00;1.00;;;;;;6163779;23;20030;-93
2023/07/12 12:33:04;;;;;;;6.13;3.30;;;32.20;1.00;;;;;;6159461;23;20032;-90
2023/07/12 12:35:59;;;;;;;5.20;2.92;;;31.20;1.00;;;;;;6161481;23;20033;-91
2023/07/12 12:38:57;;;;;;;11.55;3.47;;;31.00;1.00;;;;;;6159909;23;20321;-91
2023/07/12 12:41:59;;;;;;;5.90;3.20;;;31.00;1.00;;;;;;6159725;23;20341;-94
2023/07/12 12:44:47;;;;;;;5.25;2.88;;;31.80;1.00;;;;;;6159560;23;20021;-94
2023/07/12 12:47:34;;;;;;;4.63;3.10;;;33.50;1.00;;;;;;6160527;23;20025;-95
2023/07/12 12:50:22;;;;;;;4.22;2.88;;;34.00;1.00;;;;;;6170610;23;20049;-92
2023/07/12 12:53:13;;;;;;;6.03;3.38;;;33.40;1.00;;;;;;6170210;23;20041;-89
2023/07/12 12:56:03;;;;;;;6.80;3.20;;;33.90;1.00;;;;;;6167330;23;20073;-92
2023/07/12 12:58:53;;;;;;;4.53;3.10;;;34.30;1.00;;;;;;6163786;23;20025;-91
2023/07/12 13:01:52;;;;;;;7.32;2.97;;;34.30;1.00;;;;;;6159525;23;20040;-93
2023/07/12 13:04:48;;;;;;;5.72;2.95;;;33.60;1.00;;;;;;6159592;23;20079;-94
2023/07/12 13:07:48;;;;;;;6.47;3.05;;;33.50;1.00;;;;;;6158798;23;20091;-90
2023/07/12 13:10:55;;;;;;;8.75;3.40;;;34.00;1.00;;;;;;6157871;23;20321;-90
2023/07/12 13:13:48;;;;;;;8.57;3.55;;;32.90;1.00;;;;;;6157937;23;20036;-91
2023/07/12 13:16:38;;;;;;;8.35;3.33;;;32.80;1.00;;;;;;6139417;23;20060;-92
2023/07/12 13:19:31;;;;;;;4.57;2.50;;;33.70;1.00;;;;;;6158790;23;20029;-90
2023/07/12 13:22:25;;;;;;;5.90;3.20;;;34.20;1.00;;;;;;6157799;23;20037;-91
2023/07/12 13:25:16;;;;;;;4.75;2.60;;;34.60;1.00;;;;;;6159694;23;20449;-91
2023/07/12 13:28:04;;;;;;;4.45;2.60;;;34.30;1.00;;;;;;6136272;23;20029;-90
2023/07/12 13:31:03;;;;;;;4.53;2.80;;;35.20;1.00;;;;;;6155634;23;20032;-89
2023/07/12 13:33:56;;;;;;;5.43;2.80;;;35.50;1.00;;;;;;6157138;23;20031;-87
2023/07/12 13:39:56;;;;;;;4.45;2.83;;;34.90;1.00;;;;;;6156811;23;20338;-86
2023/07/12 13:43:09;;;;;;;3.38;2.83;;;35.40;1.00;;;;;;6156124;23;20037;-89
2023/07/12 13:46:17;;;;;;;3.80;2.58;;;36.20;1.00;;;;;;6155995;23;20398;-88
2023/07/12 13:49:06;;;;;;;3.97;2.80;;;35.70;1.00;;;;;;6154704;23;20066;-87
2023/07/12 13:51:53;;;;;;;3.42;2.63;;;35.40;1.00;;;;;;6157618;23;20658;-88
2023/07/12 13:54:42;;;;;;;6.53;3.05;;;34.60;1.00;;;;;;6156824;23;20057;-91
2023/07/12 13:57:40;;;;;;;5.38;2.92;;;33.90;1.00;;;;;;6157160;23;20079;-87
2023/07/12 14:00:30;;;;;;;7.85;3.33;;;32.80;1.00;;;;;;6155618;23;20105;-87
2023/07/12 14:03:37;;;;;;;12.20;3.70;;;32.70;1.00;;;;;;6159830;23;20032;-90
2023/07/12 14:06:27;;;;;;;5.70;3.08;;;32.70;1.00;;;;;;6158583;23;20026;-88
2023/07/12 14:09:34;;;;;;;5.18;2.90;;;32.50;1.00;;;;;;6158438;23;20029;-87
2023/07/12 14:12:29;;;;;;;6.05;2.85;;;32.10;1.00;;;;;;6157298;23;20449;-88
2023/07/12 14:15:21;;;;;;;6.38;3.10;;;31.60;1.00;;;;;;6158898;23;20037;-89
2023/07/12 14:18:32;;;;;;;5.25;2.60;;;31.10;1.00;;;;;;6157592;23;20036;-87
2023/07/12 14:21:23;;;;;;;7.45;3.08;;;30.80;1.00;;;;;;6158728;23;20036;-91
2023/07/12 14:24:14;;;;;;;8.02;2.75;;;32.20;1.00;;;;;;6160261;23;20599;-90
2023/07/12 14:27:02;;;;;;;4.55;2.70;;;33.90;1.00;;;;;;6161377;23;20037;-92
2023/07/12 14:29:54;;;;;;;5.28;2.45;;;34.80;1.00;;;;;;6164708;23;20029;-86
2023/07/12 14:32:48;;;;;;;4.38;2.60;;;34.30;1.00;;;;;;6159344;23;20026;-86
2023/07/12 14:35:38;;;;;;;7.35;2.80;;;34.30;1.00;;;;;;6156505;23;20032;-89
2023/07/12 14:38:26;;;;;;;6.55;2.55;;;34.00;1.00;;;;;;6157376;23;20036;-87
2023/07/12 14:41:21;;;;;;;3.35;2.13;;;33.70;1.00;;;;;;6156725;23;20026;-85
2023/07/12 14:44:16;;;;;;;5.07;2.50;;;33.10;1.00;;;;;;6157077;23;20097;-89
2023/07/12 14:47:14;;;;;;;6.63;2.97;;;32.50;1.00;;;;;;6157271;23;20029;-88
2023/07/12 14:50:01;;;;;;;6.00;2.42;;;32.00;1.00;;;;;;6150369;23;20128;-89
2023/07/12 14:53:02;;;;;;;3.53;2.72;;;31.30;1.00;;;;;;6156540;23;20033;-89
2023/07/12 14:55:50;;;;;;;2.92;2.20;;;32.30;1.00;;;;;;6179364;23;20025;-89
2023/07/12 14:58:59;;;;;;;4.32;2.55;;;34.00;1.00;;;;;;6190949;23;20055;-89